Archival Weather

Chicago O'Hare International

Chicago, Illinois (KORD)

Report from: Wednesday, August 23, 2023 7:51 PM CDT
Current time: Thursday, July 18, 2024 9:35 PM CDT

Current weather – Weather history – Daily summaries
Weather forecast

Temperature33.3°C (91.9°F)
Heat index42.7°C (108.9°F)
Dew point26.1°C (79.0°F)
Winds 10 kts (5.1 m/s, 11.5 mph) West-Southwest (240°)
Wind gusts 20 kts (10.3 m/s, 23 mph)
Visibility10 mi. (16.1 km)
Clouds Scattered clouds 16,000 ft. (4,877 m)
Scattered clouds 25,000 ft. (7,620 m)
Altimeter29.85 in.Hg (1011 mB)
Relative humidity66 %
Density altitude2,642 ft. (805 m)
Sea-level pressure101.0 kPa (1010 mB, 29.83 in.Hg)
Remarks Automated weather observing station with precipitation discriminator
Flight conditions Visual Meteorological Conditions
Raw dataKORD 240051Z 24010G20KT 10SM SCT160 SCT250 33/26 A2985 RMK AO2 SLP100 T03330261
An error has occurred. This application may no longer respond until reloaded. Reload 🗙